Time;durP1;ratioP1;P1;durP2;ratioP2;P2;SDS_P1;SDS_P2;PMS_P1;PMS_P2;Temp;Humidity;BMP_temperature;BMP_pressure;BME280_temperature;BME280_humidity;BME280_pressure;Samples;Min_cycle;Max_cycle;Signal;HPM_P1;HPM_P2
2023/08/05 00:01:33;;;;;;;9.57;6.25;;;;;;;29.82;63.78;101149.66;5056901;28;70017;-44
2023/08/05 00:04:23;;;;;;;7.85;5.70;;;;;;;29.92;64.32;101159.22;5050147;28;67201;-43
2023/08/05 00:07:13;;;;;;;5.85;5.38;;;;;;;29.96;65.04;101155.06;5055083;28;70660;-43
2023/08/05 00:10:04;;;;;;;6.88;5.03;;;;;;;30.00;65.21;101157.13;5051736;28;66845;-45
2023/08/05 00:12:54;;;;;;;8.55;5.60;;;;;;;30.06;64.65;101164.44;5052427;28;70972;-43
2023/08/05 00:15:44;;;;;;;13.73;5.60;;;;;;;30.07;66.36;101173.38;5054491;28;66920;-42
2023/08/05 00:18:35;;;;;;;9.48;5.45;;;;;;;30.09;66.51;101174.03;5053590;28;71260;-43
2023/08/05 00:21:25;;;;;;;6.53;5.97;;;;;;;30.14;65.03;101168.78;5052235;28;66774;-44
2023/08/05 00:24:15;;;;;;;8.43;4.95;;;;;;;30.11;67.01;101182.75;5058316;28;70829;-44
2023/08/05 00:27:05;;;;;;;7.85;5.10;;;;;;;29.82;66.46;101122.59;5050088;28;67873;-44
2023/08/05 00:29:55;;;;;;;7.15;5.82;;;;;;;30.15;70.58;101185.88;5055961;28;70815;-39
2023/08/05 00:32:45;;;;;;;19.50;6.35;;;;;;;30.24;72.37;101185.47;5059373;28;66934;-38
2023/08/05 00:35:36;;;;;;;11.57;7.22;;;;;;;30.27;72.75;101190.47;5053859;28;71077;-40
2023/08/05 00:38:26;;;;;;;14.20;7.97;;;;;;;30.34;73.05;101189.63;5059173;28;66165;-40
2023/08/05 00:41:16;;;;;;;16.15;7.70;;;;;;;30.39;73.76;101187.13;5054891;28;71464;-41
2023/08/05 00:44:06;;;;;;;10.68;7.60;;;;;;;30.39;72.32;101170.91;5058952;28;67654;-41
2023/08/05 00:46:57;;;;;;;13.18;7.70;;;;;;;29.88;75.61;101093.06;5057948;28;70801;-40
2023/08/05 00:49:52;;;;;;;13.73;7.60;;;;;;;30.42;76.63;101186.72;5059451;28;67253;-40
2023/08/05 00:52:43;;;;;;;9.50;6.85;;;;;;;30.38;76.90;101169.25;5058589;28;70767;-43
2023/08/05 00:55:34;;;;;;;16.42;7.15;;;;;;;30.54;73.92;101187.75;5059770;28;66416;-41
2023/08/05 00:58:24;;;;;;;19.23;7.03;;;;;;;30.60;73.91;101189.63;5062321;28;71119;-42
2023/08/05 01:01:14;;;;;;;21.65;7.03;;;;;;;30.57;75.58;101192.75;5058257;28;66532;-41
2023/08/05 01:04:04;;;;;;;11.20;6.25;;;;;;;30.52;77.11;101186.28;5060274;28;71145;-42
2023/08/05 01:06:54;;;;;;;12.75;6.75;;;;;;;30.60;75.06;101195.03;5058204;28;67287;-40
2023/08/05 01:09:44;;;;;;;9.80;6.30;;;;;;;30.59;75.28;101196.06;5061554;28;71297;-40
2023/08/05 01:12:35;;;;;;;7.72;6.30;;;;;;;30.62;74.84;101198.38;5055775;28;66384;-40
2023/08/05 01:15:25;;;;;;;8.88;5.70;;;;;;;30.62;77.25;101202.91;5047605;28;70542;-40
2023/08/05 01:18:17;;;;;;;9.02;7.10;;;;;;;30.78;73.27;101199.75;5058558;28;67275;-41
2023/08/05 01:21:13;;;;;;;;;;;;;;;30.43;74.92;101199.22;5054726;28;71117;-40
2023/08/05 01:24:11;;;;;;;16.40;5.43;;;;;;;30.69;72.35;101193.75;5058740;28;67748;-40
2023/08/05 01:27:03;;;;;;;8.80;6.10;;;;;;;30.80;71.58;101183.34;5060357;28;71122;-41
2023/08/05 01:29:54;;;;;;;9.65;6.05;;;;;;;30.92;71.31;101203.31;5056119;28;66731;-41
2023/08/05 01:32:44;;;;;;;5.95;5.45;;;;;;;30.97;70.86;101203.50;5056051;28;70782;-40
2023/08/05 01:35:34;;;;;;;8.68;5.18;;;;;;;30.99;70.91;101208.72;5043965;28;66441;-41
2023/08/05 01:38:25;;;;;;;12.30;5.95;;;;;;;31.02;70.94;101202.88;5068607;28;70295;-41
2023/08/05 01:41:16;;;;;;;7.07;5.88;;;;;;;30.95;70.55;101181.19;5054623;28;67164;-41
2023/08/05 01:44:06;;;;;;;8.23;6.05;;;;;;;31.07;70.97;101206.59;5046584;28;71177;-40
2023/08/05 01:46:56;;;;;;;11.68;5.70;;;;;;;31.09;70.51;101204.53;5056309;28;67450;-41
2023/08/05 01:49:46;;;;;;;9.40;5.72;;;;;;;31.12;70.50;101200.53;5057394;28;71260;-41
2023/08/05 01:52:36;;;;;;;9.80;5.47;;;;;;;31.12;70.95;101204.09;5044488;28;67501;-41
2023/08/05 01:55:26;;;;;;;6.10;5.25;;;;;;;30.99;70.66;101170.78;5055028;28;70853;-41
2023/08/05 01:58:16;;;;;;;9.98;6.03;;;;;;;31.07;70.46;101179.50;5054132;28;66896;-41
2023/08/05 02:01:06;;;;;;;16.02;5.32;;;;;;;31.24;70.87;101200.72;5054010;28;71443;-41
2023/08/05 02:03:57;;;;;;;7.20;5.70;;;;;;;31.03;70.60;101162.00;5053354;28;66894;-41
2023/08/05 02:06:47;;;;;;;10.15;5.45;;;;;;;31.22;70.46;101186.53;5048182;28;71330;-42
2023/08/05 02:09:37;;;;;;;5.50;5.00;;;;;;;31.29;70.28;101192.75;5052057;28;67516;-41
2023/08/05 02:12:28;;;;;;;5.20;4.70;;;;;;;31.27;70.57;101194.84;5053404;28;72231;-41
2023/08/05 02:15:17;;;;;;;6.07;4.82;;;;;;;31.35;70.41;101200.03;5054915;28;66398;-41
2023/08/05 02:18:08;;;;;;;6.30;5.70;;;;;;;31.38;70.46;101202.34;5044586;28;70334;-41
2023/08/05 02:21:00;;;;;;;5.80;5.38;;;;;;;30.57;70.48;101081.75;5055306;28;66808;-41
2023/08/05 02:23:52;;;;;;;6.43;5.18;;;;;;;31.44;70.17;101201.47;5056623;28;70938;-42
2023/08/05 02:26:42;;;;;;;7.07;5.45;;;;;;;31.46;70.00;101207.50;5055786;28;67462;-41
2023/08/05 02:29:32;;;;;;;6.40;4.93;;;;;;;31.49;70.13;101204.34;5052880;28;70737;-41
2023/08/05 02:32:22;;;;;;;5.53;4.60;;;;;;;31.51;70.17;101196.84;5052205;28;67502;-41
2023/08/05 02:35:12;;;;;;;5.45;4.90;;;;;;;31.46;70.00;101185.81;5055251;28;71572;-42
2023/08/05 02:38:02;;;;;;;5.50;5.00;;;;;;;31.20;70.06;101140.66;5052022;28;66108;-41
2023/08/05 02:40:58;;;;;;;6.22;5.00;;;;;;;31.59;70.04;101193.88;5058077;28;71518;-41
2023/08/05 02:43:48;;;;;;;7.90;5.47;;;;;;;31.63;70.01;101186.13;5055476;28;65716;-40
2023/08/05 02:46:38;;;;;;;8.48;5.20;;;;;;;31.67;69.85;101186.53;5050853;28;70845;-41
2023/08/05 02:49:28;;;;;;;6.28;4.78;;;;;;;31.70;69.82;101194.22;5056767;28;66425;-41
2023/08/05 02:52:19;;;;;;;8.82;4.80;;;;;;;31.69;69.77;101182.53;5046289;28;70844;-41
2023/08/05 02:55:10;;;;;;;5.38;4.88;;;;;;;31.75;69.71;101191.69;5054386;28;66616;-41
2023/08/05 02:58:00;;;;;;;5.40;4.90;;;;;;;31.75;69.68;101186.25;5054370;28;71261;-40
2023/08/05 03:00:50;;;;;;;6.57;4.95;;;;;;;31.70;69.54;101172.53;5052176;28;67441;-40
2023/08/05 03:03:40;;;;;;;6.50;4.80;;;;;;;31.82;69.67;101187.06;5052122;28;71094;-41
2023/08/05 03:06:30;;;;;;;5.20;4.68;;;;;;;31.79;69.29;101176.66;5052141;28;67340;-40
2023/08/05 03:09:20;;;;;;;5.47;4.75;;;;;;;31.78;69.34;101170.38;5051693;28;70624;-42
2023/08/05 03:12:10;;;;;;;8.32;5.25;;;;;;;31.88;69.13;101180.75;5049773;28;67422;-42
2023/08/05 03:15:01;;;;;;;6.60;5.40;;;;;;;31.93;69.14;101180.09;5051488;28;70800;-41
2023/08/05 03:17:52;;;;;;;7.95;5.13;;;;;;;31.95;69.13;101181.53;5055664;28;66792;-40
2023/08/05 03:20:43;;;;;;;8.35;5.72;;;;;;;31.97;68.87;101174.03;5057032;28;71185;-42
2023/08/05 03:23:36;;;;;;;8.40;5.53;;;;;;;31.91;69.00;101153.19;5051928;28;67540;-39
2023/08/05 03:26:26;;;;;;;11.57;4.88;;;;;;;32.00;68.86;101168.16;5052079;28;71410;-40
2023/08/05 03:29:21;;;;;;;7.00;5.05;;;;;;;32.02;68.88;101166.06;5036867;28;67257;-41
2023/08/05 03:32:12;;;;;;;13.95;6.13;;;;;;;32.03;68.73;101167.69;5050451;28;70730;-41
2023/08/05 03:35:03;;;;;;;9.07;5.55;;;;;;;31.86;69.93;101155.72;5052614;28;67155;-41
2023/08/05 03:37:53;;;;;;;18.30;5.40;;;;;;;31.73;71.13;101172.06;5052107;28;70678;-40
2023/08/05 03:40:43;;;;;;;18.02;5.32;;;;;;;31.63;71.73;101156.31;5050508;28;66750;-40
2023/08/05 03:43:33;;;;;;;9.68;4.95;;;;;;;31.60;72.37;101162.16;5052471;28;70390;-40
2023/08/05 03:46:24;;;;;;;15.88;5.40;;;;;;;31.57;72.40;101163.44;5037310;28;66672;-41
2023/08/05 03:49:14;;;;;;;15.57;5.00;;;;;;;31.47;72.28;101146.81;5051325;28;71607;-42
2023/08/05 03:52:06;;;;;;;11.35;5.07;;;;;;;31.56;72.56;101163.63;5053891;28;67306;-40
2023/08/05 03:54:57;;;;;;;15.48;4.85;;;;;;;31.56;72.58;101152.78;5054069;28;71228;-41
2023/08/05 03:57:47;;;;;;;12.25;4.80;;;;;;;31.52;72.35;101149.69;5049705;28;67311;-41
2023/08/05 04:00:43;;;;;;;6.80;5.53;;;;;;;31.45;71.77;101120.97;5049080;28;71264;-40
2023/08/05 04:03:36;;;;;;;7.40;6.05;;;;;;;31.53;71.58;101126.94;5045704;28;68068;-40
2023/08/05 04:06:26;;;;;;;12.60;6.55;;;;;;;31.63;70.79;101128.38;5053258;28;70521;-40
2023/08/05 04:09:18;;;;;;;7.45;5.43;;;;;;;31.59;70.36;101114.38;5055957;28;67263;-41
2023/08/05 04:12:09;;;;;;;5.68;5.00;;;;;;;31.58;69.91;101116.28;5058202;28;70651;-41
2023/08/05 04:15:00;;;;;;;8.30;5.00;;;;;;;31.57;70.52;101109.19;5053606;28;66496;-43
2023/08/05 04:17:57;;;;;;;17.45;5.45;;;;;;;31.51;70.92;101088.41;5050823;28;71100;-42
2023/08/05 04:20:48;;;;;;;13.52;5.15;;;;;;;31.70;71.26;101115.56;5055719;28;67054;-41
2023/08/05 04:23:41;;;;;;;10.77;5.30;;;;;;;31.56;70.90;101091.25;5050282;28;70357;-44
2023/08/05 04:26:35;;;;;;;;;;;;;;;31.51;71.44;101107.38;5051805;28;67654;-40
2023/08/05 04:29:25;;;;;;;13.18;5.00;;;;;;;31.99;69.79;101114.13;5050494;28;71298;-39
2023/08/05 04:32:15;;;;;;;17.95;4.93;;;;;;;32.03;69.32;101090.91;5055602;28;67836;-41
2023/08/05 04:35:06;;;;;;;13.68;4.97;;;;;;;32.20;68.95;101085.72;5057494;28;71065;-42
2023/08/05 04:37:56;;;;;;;10.95;5.57;;;;;;;32.28;68.77;101096.28;5049285;28;67230;-39
2023/08/05 04:40:47;;;;;;;15.70;4.78;;;;;;;32.21;68.81;101062.97;5056433;28;70395;-40
2023/08/05 04:43:37;;;;;;;9.40;4.97;;;;;;;32.34;68.37;101073.66;5049760;28;67569;-40
2023/08/05 04:46:27;;;;;;;13.35;4.63;;;;;;;32.41;68.31;101071.72;5054362;28;70298;-40
2023/08/05 04:49:17;;;;;;;13.15;4.97;;;;;;;32.35;68.35;101050.09;5057233;28;66809;-42
2023/08/05 04:52:08;;;;;;;10.32;4.72;;;;;;;32.38;67.86;101039.59;5044001;28;71168;-41
2023/08/05 04:55:11;;;;;;;15.37;4.97;;;;;;;32.09;67.87;100996.91;5055825;28;65725;-40
2023/08/05 04:58:04;;;;;;;8.88;4.57;;;;;;;32.54;67.97;101037.34;5057710;28;71083;-40
2023/08/05 05:00:58;;;;;;;9.98;4.50;;;;;;;32.24;67.83;100978.38;5056618;28;67248;-41
2023/08/05 05:03:49;;;;;;;12.85;4.55;;;;;;;32.52;67.43;101009.59;5040441;28;71189;-40
2023/08/05 05:06:40;;;;;;;10.07;5.03;;;;;;;32.66;67.52;101043.69;5048009;28;67310;-40
2023/08/05 05:09:32;;;;;;;10.63;4.60;;;;;;;32.70;67.35;101036.72;5056742;28;71110;-39
2023/08/05 05:12:21;;;;;;;20.05;5.32;;;;;;;32.54;67.21;100994.75;5050770;28;67240;-41
2023/08/05 05:15:11;;;;;;;12.18;4.50;;;;;;;32.73;67.03;101025.38;5056130;28;70702;-41
2023/08/05 05:18:02;;;;;;;10.60;5.00;;;;;;;32.78;67.38;101022.00;5058146;28;67268;-42
2023/08/05 05:20:54;;;;;;;9.65;5.15;;;;;;;32.79;67.19;101024.50;5057464;28;71317;-43
2023/08/05 05:23:44;;;;;;;8.38;4.55;;;;;;;32.75;67.31;101006.97;5055315;28;67327;-42
2023/08/05 05:26:34;;;;;;;8.77;4.45;;;;;;;32.85;66.91;101023.56;5049125;28;70853;-41
2023/08/05 05:29:25;;;;;;;8.40;4.63;;;;;;;32.85;66.82;101011.88;5055753;28;66599;-42
2023/08/05 05:32:15;;;;;;;8.35;4.45;;;;;;;32.89;66.51;101007.63;5056919;28;71116;-43
2023/08/05 05:35:06;;;;;;;5.70;4.32;;;;;;;32.92;67.16;100997.13;5059115;28;67323;-42
2023/08/05 05:37:56;;;;;;;5.78;4.57;;;;;;;32.94;66.93;100988.75;5060163;28;70585;-42
2023/08/05 05:40:46;;;;;;;9.27;5.05;;;;;;;32.96;66.77;100989.34;5060041;28;67290;-42
2023/08/05 05:43:38;;;;;;;6.88;4.25;;;;;;;32.99;66.74;100985.31;5058934;28;70968;-43
2023/08/05 05:46:28;;;;;;;8.63;5.07;;;;;;;32.98;66.54;100981.75;5057235;28;66932;-43
2023/08/05 05:49:19;;;;;;;6.55;4.35;;;;;;;32.89;66.42;100940.53;5060373;28;70802;-41
2023/08/05 05:52:16;;;;;;;10.90;4.88;;;;;;;33.06;66.58;100976.03;5055653;28;66993;-41
2023/08/05 05:55:08;;;;;;;7.05;4.68;;;;;;;33.10;66.47;100966.38;5055081;28;70435;-46
2023/08/05 05:57:58;;;;;;;6.60;5.00;;;;;;;33.05;66.55;100941.78;5056167;28;67489;-41
2023/08/05 06:00:55;;;;;;;10.88;5.05;;;;;;;32.80;66.16;100901.16;5058379;28;70839;-40
2023/08/05 06:03:46;;;;;;;7.47;4.30;;;;;;;33.14;65.92;100934.09;5050536;28;67633;-41
2023/08/05 06:06:37;;;;;;;5.50;4.30;;;;;;;33.22;66.16;100947.34;5058953;28;71132;-42
2023/08/05 06:09:29;;;;;;;7.10;4.63;;;;;;;33.24;65.95;100934.34;5059170;28;66149;-40
2023/08/05 06:12:19;;;;;;;;;;;;;;;32.97;66.82;100938.53;5051100;28;70871;-41
2023/08/05 06:15:08;;;;;;;5.97;4.38;;;;;;;33.05;66.11;100908.34;5048726;28;67608;-41
2023/08/05 06:18:10;;;;;;;6.55;4.07;;;;;;;33.24;66.47;100928.91;5049824;28;71155;-42
2023/08/05 06:21:00;;;;;;;5.57;4.35;;;;;;;33.32;66.01;100931.28;5057601;28;67488;-40
2023/08/05 06:23:51;;;;;;;6.82;4.38;;;;;;;33.21;65.62;100912.22;5048369;28;71113;-41
2023/08/05 06:26:42;;;;;;;7.53;4.50;;;;;;;33.31;65.73;100912.47;5047975;28;67276;-41
2023/08/05 06:29:33;;;;;;;7.32;4.50;;;;;;;33.42;65.71;100914.38;5054772;28;71390;-40
2023/08/05 06:32:24;;;;;;;5.72;4.90;;;;;;;33.43;65.52;100918.72;5047545;28;66746;-40
2023/08/05 06:35:14;;;;;;;9.35;4.38;;;;;;;33.44;65.30;100900.56;5049227;28;70393;-40
2023/08/05 06:38:05;;;;;;;5.32;4.47;;;;;;;33.22;65.41;100854.09;5054460;28;66599;-41
2023/08/05 06:40:56;;;;;;;8.00;5.18;;;;;;;33.52;65.59;100892.03;5053475;28;70507;-41
2023/08/05 06:43:46;;;;;;;8.38;4.75;;;;;;;33.35;65.29;100845.72;5054546;28;67354;-42
2023/08/05 06:46:39;;;;;;;10.27;4.93;;;;;;;33.57;65.25;100881.28;5053442;28;71286;-40
2023/08/05 06:49:29;;;;;;;11.48;5.30;;;;;;;33.50;65.23;100856.09;5048089;28;67523;-40
2023/08/05 06:52:20;;;;;;;8.40;5.25;;;;;;;33.62;65.13;100865.06;5047635;28;71073;-41
2023/08/05 06:55:12;;;;;;;6.05;5.10;;;;;;;33.61;65.13;100868.88;5058531;28;67464;-40
2023/08/05 06:58:02;;;;;;;6.15;5.55;;;;;;;33.68;64.94;100864.09;5051019;28;70544;-41
2023/08/05 07:00:53;;;;;;;7.35;5.28;;;;;;;33.71;64.93;100863.66;5051087;28;66197;-41
2023/08/05 07:03:44;;;;;;;5.97;5.20;;;;;;;33.53;64.85;100828.44;5048155;28;70946;-42
2023/08/05 07:06:38;;;;;;;6.78;4.95;;;;;;;33.78;64.98;100869.78;5058004;28;67296;-42
2023/08/05 07:09:28;;;;;;;9.18;5.35;;;;;;;33.71;64.72;100841.88;5046136;28;71076;-41
2023/08/05 07:12:19;;;;;;;5.80;5.20;;;;;;;33.80;64.56;100848.59;5058679;28;67073;-41
2023/08/05 07:15:10;;;;;;;7.45;5.60;;;;;;;33.89;64.26;100854.47;5048549;28;70412;-40
2023/08/05 07:18:00;;;;;;;6.78;4.82;;;;;;;33.77;64.02;100830.03;5048256;28;67133;-41
2023/08/05 07:20:51;;;;;;;6.95;4.63;;;;;;;33.96;64.39;100851.59;5052942;28;70657;-40
2023/08/05 07:23:42;;;;;;;5.93;4.90;;;;;;;33.92;64.35;100825.97;5045750;28;66622;-41
2023/08/05 07:26:32;;;;;;;6.70;5.18;;;;;;;33.89;64.21;100818.28;5053364;28;70759;-42
2023/08/05 07:29:22;;;;;;;5.63;4.88;;;;;;;34.05;63.86;100820.25;5046586;28;67844;-42
2023/08/05 07:32:13;;;;;;;8.85;5.00;;;;;;;34.02;63.57;100807.13;5053730;28;69770;-42
2023/08/05 07:35:04;;;;;;;6.53;5.32;;;;;;;33.98;63.60;100784.16;5046263;28;67247;-42
2023/08/05 07:37:55;;;;;;;8.63;4.65;;;;;;;34.16;63.74;100794.88;5046365;28;70153;-42
2023/08/05 07:40:46;;;;;;;8.53;5.10;;;;;;;34.15;63.26;100787.75;5037889;28;67474;-42
2023/08/05 07:43:38;;;;;;;6.30;5.10;;;;;;;34.20;63.10;100776.97;5051433;28;71148;-41
2023/08/05 07:46:32;;;;;;;40.97;5.72;;;;;;;34.18;63.34;100760.06;5052222;28;67121;-43
2023/08/05 07:49:23;;;;;;;16.90;5.57;;;;;;;33.74;61.93;100702.66;5051815;28;71049;-40
2023/08/05 07:52:13;;;;;;;7.50;5.63;;;;;;;33.66;58.54;100768.34;5043395;28;66587;-43
2023/08/05 07:55:07;;;;;;;13.63;6.13;;;;;;;33.35;57.28;100762.25;5055231;28;71195;-43
2023/08/05 07:57:58;;;;;;;6.50;5.25;;;;;;;33.21;56.70;100770.88;5052788;28;67326;-44
2023/08/05 08:00:49;;;;;;;6.85;4.75;;;;;;;33.24;55.97;100792.16;5042469;28;70504;-42
2023/08/05 08:03:41;;;;;;;5.50;5.00;;;;;;;33.13;55.75;100782.97;5044986;28;66671;-41
2023/08/05 08:06:32;;;;;;;6.45;4.65;;;;;;;33.11;56.25;100804.94;5054707;28;71104;-43
2023/08/05 08:09:22;;;;;;;4.88;4.45;;;;;;;33.07;56.06;100786.63;5052707;28;66643;-42
2023/08/05 08:12:13;;;;;;;6.57;5.13;;;;;;;32.97;54.33;100786.38;5052129;28;71289;-41
2023/08/05 08:15:03;;;;;;;5.05;4.60;;;;;;;32.88;52.29;100777.75;5059306;28;66785;-41
2023/08/05 08:17:54;;;;;;;7.75;4.53;;;;;;;32.74;51.46;100777.16;5049400;28;71101;-41
2023/08/05 08:20:52;;;;;;;4.82;4.43;;;;;;;32.54;51.24;100746.78;5049560;28;67851;-41
2023/08/05 08:23:42;;;;;;;6.00;4.93;;;;;;;32.66;50.46;100785.66;5055357;28;70749;-41
2023/08/05 08:26:33;;;;;;;4.80;4.40;;;;;;;32.67;50.77;100788.13;5054059;28;66726;-40
2023/08/05 08:29:23;;;;;;;4.25;3.92;;;;;;;32.66;51.30;100791.09;5052601;28;70421;-40
2023/08/05 08:32:14;;;;;;;5.22;4.18;;;;;;;32.56;51.46;100793.53;5056077;28;67265;-41
2023/08/05 08:35:05;;;;;;;8.52;4.50;;;;;;;32.67;50.69;100804.41;5058523;28;71293;-41
2023/08/05 08:37:55;;;;;;;5.38;4.28;;;;;;;32.66;52.18;100807.38;5048505;28;66584;-41
2023/08/05 08:40:51;;;;;;;7.32;4.45;;;;;;;32.66;51.28;100796.53;5062535;28;71263;-40
2023/08/05 08:43:43;;;;;;;13.02;3.65;;;;;;;32.46;51.25;100786.00;5062233;28;65649;-41
2023/08/05 08:46:37;;;;;;;4.78;3.55;;;;;;;31.98;52.55;100719.88;5060889;28;44089;-41
2023/08/05 08:49:30;;;;;;;12.02;4.68;;;;;;;32.42;58.96;100772.00;5057729;28;66570;-43
2023/08/05 08:52:22;;;;;;;8.73;4.63;;;;;;;32.30;61.23;100727.72;5054863;28;71112;-42
2023/08/05 08:55:15;;;;;;;9.02;5.00;;;;;;;32.64;62.56;100766.03;5061716;28;67437;-42
2023/08/05 08:58:06;;;;;;;8.15;4.80;;;;;;;32.81;63.57;100783.28;5044157;28;70365;-42
2023/08/05 09:00:58;;;;;;;13.70;4.65;;;;;;;32.79;63.81;100785.44;5061084;28;67344;-43
2023/08/05 09:03:52;;;;;;;8.73;4.78;;;;;;;32.59;64.33;100763.19;5053494;28;70012;-44
2023/08/05 09:06:45;;;;;;;8.77;4.55;;;;;;;32.97;64.57;100835.28;5057276;28;67387;-43
2023/08/05 09:09:36;;;;;;;32.20;6.85;;;;;;;33.07;66.20;100824.66;5060056;28;70155;-48
2023/08/05 09:12:30;;;;;;;22.83;6.10;;;;;;;33.10;65.87;100856.84;5058485;28;67284;-43
2023/08/05 09:15:22;;;;;;;13.20;5.90;;;;;;;33.09;65.98;100857.88;5056714;28;71142;-42
2023/08/05 09:18:12;;;;;;;19.57;6.17;;;;;;;32.93;65.95;100846.63;5062254;28;65170;-42
2023/08/05 09:21:03;;;;;;;13.65;6.60;;;;;;;33.17;65.66;100876.53;5061567;28;70951;-42
2023/08/05 09:24:01;;;;;;;15.88;7.00;;;;;;;33.10;65.95;100890.25;5060394;28;66145;-41
2023/08/05 09:26:57;;;;;;;24.13;7.13;;;;;;;33.15;66.30;100870.50;5053668;28;70380;-41
2023/08/05 09:29:47;;;;;;;12.65;6.55;;;;;;;33.17;66.33;100851.25;5056885;28;66293;-41
2023/08/05 09:32:39;;;;;;;19.35;6.60;;;;;;;32.66;66.64;100758.50;5056528;28;71116;-41
2023/08/05 09:35:30;;;;;;;12.70;6.10;;;;;;;33.18;66.60;100833.88;5055546;28;68229;-43
2023/08/05 09:38:22;;;;;;;51.47;7.78;;;;;;;33.19;67.75;100828.22;5059626;28;71188;-41
2023/08/05 09:41:12;;;;;;;69.20;10.40;;;;;;;33.12;68.19;100839.19;5055718;28;67915;-43
2023/08/05 09:44:05;;;;;;;67.18;8.85;;;;;;;33.10;67.87;100840.53;5051808;28;71092;-43
2023/08/05 09:46:59;;;;;;;28.48;8.65;;;;;;;33.00;67.46;100837.56;5059381;28;66603;-42
2023/08/05 09:49:52;;;;;;;16.35;8.27;;;;;;;32.40;67.99;100743.44;5055577;28;71144;-41
2023/08/05 09:52:43;;;;;;;11.52;8.40;;;;;;;32.90;68.29;100817.22;5056101;28;66680;-41
2023/08/05 09:55:36;;;;;;;17.20;9.43;;;;;;;32.93;68.45;100829.47;5058554;28;71166;-41
2023/08/05 09:58:27;;;;;;;15.05;10.77;;;;;;;32.82;69.35;100833.88;5055582;28;66187;-42
2023/08/05 10:01:19;;;;;;;17.38;13.65;;;;;;;32.84;70.02;100853.44;5047705;28;71234;-40
2023/08/05 10:04:15;;;;;;;26.65;13.57;;;;;;;32.78;70.34;100859.81;5053245;28;67275;-42
2023/08/05 10:07:06;;;;;;;18.25;14.70;;;;;;;32.81;70.62;100851.19;5057621;28;70424;-40
2023/08/05 10:10:00;;;;;;;18.00;14.50;;;;;;;32.77;70.82;100839.16;5051005;28;66539;-42
2023/08/05 10:13:08;;;;;;;27.73;14.50;;;;;;;32.11;71.07;100729.69;5054931;28;70432;-42
2023/08/05 10:15:59;;;;;;;19.02;14.07;;;;;;;32.85;71.31;100860.56;5059138;28;67077;-42
2023/08/05 10:18:50;;;;;;;25.15;13.60;;;;;;;32.85;71.53;100879.56;5057350;28;71083;-41
2023/08/05 10:21:45;;;;;;;25.67;15.52;;;;;;;32.83;71.17;100876.25;5058072;28;67205;-43
2023/08/05 10:24:58;;;;;;;32.22;16.48;;;;;;;32.70;71.50;100868.31;5052232;28;71597;-44
2023/08/05 10:27:48;;;;;;;22.77;16.25;;;;;;;32.84;71.41;100880.63;5054190;28;67265;-40
2023/08/05 10:30:43;;;;;;;29.85;16.58;;;;;;;32.88;70.99;100876.38;5059620;28;71804;-41
2023/08/05 10:34:12;;;;;;;29.52;17.00;;;;;;;32.78;71.29;100864.44;5059389;28;66690;-41
2023/08/05 10:37:03;;;;;;;24.27;17.67;;;;;;;32.87;71.12;100868.44;5056838;28;71018;-42
2023/08/05 10:40:11;;;;;;;22.67;16.40;;;;;;;32.78;71.46;100867.97;5054086;28;66785;-40
2023/08/05 10:43:01;;;;;;;25.92;17.42;;;;;;;32.86;71.66;100859.47;5058083;28;70422;-43
2023/08/05 10:45:53;;;;;;;21.55;16.83;;;;;;;32.84;71.78;100861.59;5058048;28;67378;-41
2023/08/05 10:48:50;;;;;;;19.70;16.50;;;;;;;32.81;72.06;100867.50;5058748;28;70368;-44
2023/08/05 10:51:41;;;;;;;29.90;17.27;;;;;;;32.85;72.25;100882.28;5053546;28;67222;-43
2023/08/05 10:54:31;;;;;;;31.48;17.23;;;;;;;32.79;72.27;100875.09;5053468;28;71223;-43
2023/08/05 10:57:34;;;;;;;18.63;16.60;;;;;;;32.77;72.82;100884.53;5060496;28;66449;-41
2023/08/05 11:00:26;;;;;;;29.20;17.30;;;;;;;32.78;72.53;100876.13;5059071;28;70346;-42
2023/08/05 11:03:26;;;;;;;19.08;15.65;;;;;;;32.26;72.82;100797.09;5054737;28;65483;-40
2023/08/05 11:06:23;;;;;;;18.35;15.35;;;;;;;32.35;73.00;100814.72;5055558;28;70387;-43
2023/08/05 11:09:14;;;;;;;19.27;14.70;;;;;;;32.84;72.91;100896.09;5055931;28;64880;-44
2023/08/05 11:12:05;;;;;;;19.73;16.13;;;;;;;32.70;73.12;100882.72;5053317;28;70660;-44
2023/08/05 11:14:56;;;;;;;25.35;15.73;;;;;;;32.83;73.64;100908.03;5037716;28;67140;-40
2023/08/05 11:17:55;;;;;;;16.05;14.40;;;;;;;32.46;73.54;100860.13;5056848;28;70892;-39
2023/08/05 11:20:46;;;;;;;17.23;14.68;;;;;;;32.80;73.88;100901.16;5049954;28;66668;-40
2023/08/05 11:23:45;;;;;;;16.13;14.45;;;;;;;32.28;74.12;100811.28;5054862;28;71331;-41
2023/08/05 11:26:36;;;;;;;15.30;13.55;;;;;;;32.82;74.47;100888.19;5056778;28;66574;-41
2023/08/05 11:29:26;;;;;;;18.73;14.30;;;;;;;32.79;74.32;100877.78;5051087;28;71201;-39
2023/08/05 11:32:17;;;;;;;19.42;14.93;;;;;;;32.82;74.79;100898.22;5054630;28;66761;-43
2023/08/05 11:35:08;;;;;;;16.80;13.60;;;;;;;32.78;75.48;100887.00;5058104;28;71112;-40
2023/08/05 11:37:59;;;;;;;14.32;12.85;;;;;;;32.79;75.67;100894.09;5057178;28;66580;-40
2023/08/05 11:40:53;;;;;;;22.85;13.45;;;;;;;32.80;75.21;100890.31;5057889;28;71094;-41
2023/08/05 11:43:44;;;;;;;15.52;12.43;;;;;;;32.73;75.37;100884.13;5057516;28;67148;-40
2023/08/05 11:46:35;;;;;;;16.27;13.63;;;;;;;32.75;75.07;100887.47;5057842;28;71138;-42
2023/08/05 11:49:29;;;;;;;14.73;12.90;;;;;;;32.76;74.79;100889.09;5051490;28;66897;-42
2023/08/05 11:52:19;;;;;;;24.40;12.55;;;;;;;32.73;74.32;100897.72;5051879;28;71032;-40
2023/08/05 11:55:13;;;;;;;13.25;11.80;;;;;;;32.72;73.95;100901.50;5057781;28;68048;-41
2023/08/05 11:58:04;;;;;;;13.88;12.40;;;;;;;32.69;73.85;100905.50;5048375;28;71642;-40
2023/08/05 12:01:00;;;;;;;13.07;11.75;;;;;;;32.71;73.83;100910.72;5057936;28;67368;-42
2023/08/05 12:03:57;;;;;;;15.38;12.00;;;;;;;32.68;73.71;100905.72;5056512;28;70557;-39
2023/08/05 12:06:48;;;;;;;17.30;11.35;;;;;;;32.66;74.17;100910.59;5056177;28;67344;-40
2023/08/05 12:09:39;;;;;;;17.52;12.13;;;;;;;32.66;74.73;100905.97;5051292;28;70304;-40
2023/08/05 12:12:29;;;;;;;33.03;12.52;;;;;;;32.65;75.30;100917.91;5059168;28;67247;-39
2023/08/05 12:15:26;;;;;;;31.90;12.45;;;;;;;32.63;74.67;100911.06;5054353;28;70876;-42
2023/08/05 12:18:18;;;;;;;28.80;12.13;;;;;;;32.61;73.93;100913.16;5057851;28;67211;-41
2023/08/05 12:21:14;;;;;;;19.75;12.32;;;;;;;32.62;74.03;100920.25;5058793;28;71176;-39
2023/08/05 12:24:05;;;;;;;16.23;10.40;;;;;;;32.50;73.81;100912.06;5060036;28;67278;-39
2023/08/05 12:26:55;;;;;;;14.88;10.98;;;;;;;32.47;73.20;100913.34;5062058;28;71874;-39
2023/08/05 12:29:46;;;;;;;13.50;10.27;;;;;;;32.47;73.80;100915.25;5057550;28;66121;-41
2023/08/05 12:32:37;;;;;;;44.92;12.57;;;;;;;32.64;72.55;100912.69;5059072;28;70418;-40
2023/08/05 12:35:28;;;;;;;33.40;11.57;;;;;;;32.81;71.92;100929.97;5061837;28;67268;-41
2023/08/05 12:38:18;;;;;;;20.75;11.00;;;;;;;32.94;71.75;100940.66;5055909;28;70512;-41
2023/08/05 12:41:11;;;;;;;20.00;10.93;;;;;;;32.96;71.39;100939.59;5061315;28;66970;-42
2023/08/05 12:44:08;;;;;;;34.45;13.43;;;;;;;32.56;71.22;100888.59;5047522;28;70537;-42
2023/08/05 12:47:04;;;;;;;15.20;11.10;;;;;;;32.81;72.61;100950.91;5055150;28;67276;-41
2023/08/05 12:50:01;;;;;;;20.63;12.57;;;;;;;32.70;72.92;100955.22;5058768;28;71511;-41
2023/08/05 12:52:52;;;;;;;18.38;11.50;;;;;;;32.63;73.87;100968.91;5058784;28;66615;-41
2023/08/05 12:55:42;;;;;;;15.40;11.63;;;;;;;32.61;73.91;100979.16;5056218;28;70562;-41
2023/08/05 12:58:34;;;;;;;24.20;12.13;;;;;;;32.59;74.25;100992.13;5056717;28;67375;-45
2023/08/05 13:01:45;;;;;;;14.13;11.35;;;;;;;32.55;73.59;100982.81;5059961;28;71198;-40
2023/08/05 13:04:55;;;;;;;26.45;12.82;;;;;;;32.55;73.92;100990.97;5059190;28;66493;-41
2023/08/05 13:07:46;;;;;;;16.17;11.95;;;;;;;32.51;74.18;100988.91;5057327;28;71111;-42
2023/08/05 13:10:38;;;;;;;12.75;11.35;;;;;;;32.53;74.04;100989.53;5059221;28;66646;-43
2023/08/05 13:13:36;;;;;;;18.88;11.63;;;;;;;32.75;72.39;100990.69;5057834;28;70590;-40